createdAt,value
2018-07-31T00:00:29.182Z,66.90
2018-07-31T00:02:57.905Z,66.90
2018-07-31T00:05:26.625Z,67.10
2018-07-31T00:07:55.353Z,67.00
2018-07-31T00:10:24.111Z,66.70
2018-07-31T00:12:52.872Z,67.10
2018-07-31T00:15:21.557Z,67.60
2018-07-31T00:17:50.241Z,67.50
2018-07-31T00:20:18.953Z,67.50
2018-07-31T00:22:47.674Z,67.50
2018-07-31T00:25:16.394Z,67.40
2018-07-31T00:27:45.126Z,67.40
2018-07-31T00:30:13.810Z,67.70
2018-07-31T00:32:42.561Z,67.70
2018-07-31T00:35:11.281Z,67.90
2018-07-31T00:37:39.969Z,67.90
2018-07-31T00:40:08.730Z,68.00
2018-07-31T00:42:37.496Z,67.70
2018-07-31T00:45:06.343Z,67.80
2018-07-31T00:47:35.128Z,68.30
2018-07-31T00:50:03.861Z,68.40
2018-07-31T00:52:35.707Z,68.40
2018-07-31T00:57:32.892Z,69.10
2018-07-31T01:00:01.670Z,68.70
2018-07-31T01:02:30.389Z,69.40
2018-07-31T01:04:59.105Z,68.90
2018-07-31T01:07:34.669Z,68.90
2018-07-31T01:10:03.398Z,69.30
2018-07-31T01:12:32.205Z,69.50
2018-07-31T01:15:00.913Z,69.70
2018-07-31T01:17:29.740Z,70.30
2018-07-31T01:19:58.442Z,70.20
2018-07-31T01:22:27.157Z,70.30
2018-07-31T01:29:52.756Z,70.50
2018-07-31T01:32:21.524Z,70.70
2018-07-31T01:34:50.276Z,70.90
2018-07-31T01:37:19.013Z,70.90
2018-07-31T01:39:47.847Z,71.00
2018-07-31T01:42:16.611Z,71.40
2018-07-31T01:44:45.321Z,71.60
2018-07-31T01:49:42.562Z,71.70
2018-07-31T01:52:11.249Z,71.90
2018-07-31T01:54:39.960Z,72.10
2018-07-31T01:57:08.733Z,72.20
2018-07-31T01:59:37.478Z,72.30
2018-07-31T02:02:06.390Z,72.50
2018-07-31T02:04:35.059Z,72.50
2018-07-31T02:07:03.844Z,72.70
2018-07-31T02:09:32.557Z,73.00
2018-07-31T02:12:01.262Z,73.10
2018-07-31T02:14:30.037Z,73.10
2018-07-31T02:17:04.466Z,73.10
2018-07-31T02:19:39.142Z,73.00
2018-07-31T02:22:08.984Z,73.80
2018-07-31T02:24:37.683Z,72.70
2018-07-31T02:27:06.419Z,72.80
2018-07-31T02:29:40.457Z,73.30
2018-07-31T02:32:09.213Z,73.30
2018-07-31T02:34:37.958Z,73.60
2018-07-31T02:37:06.829Z,73.80
2018-07-31T02:39:35.855Z,74.00
2018-07-31T02:44:32.932Z,74.90
2018-07-31T02:47:01.783Z,74.50
2018-07-31T02:49:30.469Z,74.70
2018-07-31T02:51:59.202Z,74.50
2018-07-31T02:54:27.918Z,74.70
2018-07-31T02:56:56.733Z,74.70
2018-07-31T02:59:31.827Z,74.80
2018-07-31T03:02:00.576Z,74.80
2018-07-31T03:04:29.310Z,74.70
2018-07-31T03:06:58.029Z,74.90
2018-07-31T03:09:26.905Z,74.50
2018-07-31T03:11:55.601Z,74.90
2018-07-31T03:14:24.362Z,75.30
2018-07-31T03:16:53.106Z,75.40
2018-07-31T03:19:21.925Z,75.60
2018-07-31T03:21:50.686Z,75.50
2018-07-31T03:24:19.433Z,75.90
2018-07-31T03:26:48.129Z,76.00
2018-07-31T03:29:16.845Z,75.80
2018-07-31T03:31:45.575Z,75.90
2018-07-31T03:34:14.333Z,76.10
2018-07-31T03:36:43.128Z,76.30
2018-07-31T03:39:11.819Z,76.50
2018-07-31T03:41:41.649Z,76.30
2018-07-31T03:44:10.413Z,76.40
2018-07-31T03:46:39.093Z,76.70
2018-07-31T03:49:08.033Z,76.90
2018-07-31T03:51:36.740Z,76.90
2018-07-31T03:54:05.803Z,77.10
2018-07-31T03:56:34.500Z,77.40
2018-07-31T03:59:03.294Z,77.30
2018-07-31T04:01:32.032Z,77.40
2018-07-31T04:04:00.770Z,77.50
2018-07-31T04:06:29.452Z,77.40
2018-07-31T04:08:58.138Z,77.60
2018-07-31T04:11:26.913Z,76.80
2018-07-31T04:13:55.646Z,77.40
2018-07-31T04:16:24.338Z,77.60
2018-07-31T04:18:53.069Z,77.00
2018-07-31T04:21:21.776Z,77.90
2018-07-31T04:23:50.505Z,78.10
2018-07-31T04:33:48.127Z,78.60
2018-07-31T04:36:16.861Z,78.00
2018-07-31T04:38:52.216Z,78.60
2018-07-31T04:41:20.923Z,78.60
2018-07-31T04:43:49.645Z,78.80
2018-07-31T04:46:18.352Z,78.60
2018-07-31T04:48:47.041Z,78.50
2018-07-31T04:51:15.770Z,78.70
2018-07-31T04:53:44.421Z,79.40
2018-07-31T04:58:46.700Z,79.10
2018-07-31T05:01:15.368Z,79.20
2018-07-31T05:03:44.181Z,78.90
2018-07-31T05:06:12.950Z,78.50
2018-07-31T05:08:41.621Z,78.70
2018-07-31T05:11:10.446Z,78.60
2018-07-31T05:13:39.100Z,78.70
2018-07-31T05:16:07.831Z,78.90
2018-07-31T05:18:36.557Z,78.60
2018-07-31T05:21:05.279Z,78.50
2018-07-31T05:23:34.106Z,78.20
2018-07-31T05:26:21.982Z,78.30
2018-07-31T05:28:50.722Z,78.20
2018-07-31T05:31:19.449Z,77.70
2018-07-31T05:33:48.482Z,77.90
2018-07-31T05:36:20.337Z,78.00
2018-07-31T05:39:05.792Z,78.60
2018-07-31T05:41:43.545Z,78.90
2018-07-31T05:44:12.276Z,79.20
2018-07-31T05:46:40.961Z,79.20
2018-07-31T05:49:09.806Z,78.50
2018-07-31T05:51:38.541Z,77.70
2018-07-31T05:54:07.233Z,78.50
2018-07-31T05:56:36.077Z,77.80
2018-07-31T05:59:04.789Z,78.20
2018-07-31T06:01:33.497Z,78.80
2018-07-31T06:04:02.223Z,78.10
2018-07-31T06:06:30.928Z,78.70
2018-07-31T06:08:59.637Z,78.10
2018-07-31T06:11:28.328Z,78.40
2018-07-31T06:14:02.161Z,78.40
2018-07-31T06:16:34.769Z,78.60
2018-07-31T06:19:03.448Z,77.90
2018-07-31T06:21:44.115Z,77.50
2018-07-31T06:24:13.994Z,77.50
2018-07-31T06:26:43.845Z,77.90
2018-07-31T06:29:17.501Z,76.90
2018-07-31T06:31:49.321Z,76.80
2018-07-31T06:34:18.089Z,76.90
2018-07-31T06:36:46.841Z,76.20
2018-07-31T06:39:15.576Z,75.80
2018-07-31T06:41:49.432Z,76.00
2018-07-31T06:44:18.250Z,76.10
2018-07-31T06:46:46.956Z,77.10
2018-07-31T06:49:15.873Z,77.20
2018-07-31T06:51:44.494Z,75.50
2018-07-31T06:54:13.290Z,76.00
2018-07-31T06:56:42.068Z,75.10
2018-07-31T06:59:14.302Z,74.80
2018-07-31T07:02:01.064Z,74.20
2018-07-31T07:04:29.704Z,73.40
2018-07-31T07:07:06.005Z,73.30
2018-07-31T07:09:34.724Z,73.50
2018-07-31T07:12:04.581Z,73.70
2018-07-31T07:14:33.334Z,74.10
2018-07-31T07:17:05.552Z,73.10
2018-07-31T07:19:34.306Z,73.70
2018-07-31T07:22:03.014Z,73.30
2018-07-31T07:24:32.699Z,72.70
2018-07-31T07:27:01.440Z,72.00
2018-07-31T07:29:34.057Z,72.50
2018-07-31T07:32:02.851Z,71.40
2018-07-31T07:34:31.572Z,70.90
2018-07-31T07:37:01.360Z,71.40
2018-07-31T07:39:30.075Z,71.10
2018-07-31T07:41:58.797Z,70.80
2018-07-31T07:44:28.601Z,70.80
2018-07-31T07:46:57.312Z,70.50
2018-07-31T07:49:26.109Z,70.10
2018-07-31T07:51:54.905Z,69.40
2018-07-31T07:54:23.573Z,68.80
2018-07-31T07:56:52.266Z,68.60
2018-07-31T07:59:23.199Z,68.20
2018-07-31T08:01:51.901Z,68.30
2018-07-31T08:04:20.621Z,67.50
2018-07-31T08:06:49.369Z,65.90
2018-07-31T08:09:23.016Z,64.70
2018-07-31T08:11:51.665Z,65.30
2018-07-31T08:14:20.405Z,66.00
2018-07-31T08:19:17.508Z,63.60
2018-07-31T08:21:46.235Z,62.50
2018-07-31T08:24:14.971Z,62.00
2018-07-31T08:26:43.651Z,62.30
2018-07-31T08:29:13.513Z,62.70
2018-07-31T08:31:42.281Z,62.10
2018-07-31T08:34:11.079Z,62.00
2018-07-31T08:36:39.814Z,62.00
2018-07-31T08:39:09.483Z,61.10
2018-07-31T08:41:38.217Z,61.50
2018-07-31T08:44:07.197Z,60.20
2018-07-31T08:46:36.042Z,59.40
2018-07-31T08:49:05.881Z,59.70
2018-07-31T08:51:34.628Z,60.80
2018-07-31T08:54:03.417Z,60.80
2018-07-31T08:56:32.117Z,60.80
2018-07-31T08:59:00.857Z,59.40
2018-07-31T09:01:29.583Z,59.50
2018-07-31T09:03:58.320Z,58.90
2018-07-31T09:06:27.053Z,58.90
2018-07-31T09:08:55.823Z,57.60
2018-07-31T09:11:24.514Z,57.50
2018-07-31T09:13:53.249Z,57.30
2018-07-31T09:16:21.934Z,55.70
2018-07-31T09:18:50.641Z,56.00
2018-07-31T09:21:19.363Z,55.00
2018-07-31T09:23:48.008Z,54.70
2018-07-31T09:26:16.854Z,55.20
2018-07-31T09:28:45.567Z,55.30
2018-07-31T09:31:14.758Z,52.70
2018-07-31T09:33:43.798Z,53.30
2018-07-31T09:36:12.610Z,52.60
2018-07-31T09:38:41.296Z,53.00
2018-07-31T09:41:09.977Z,52.40
2018-07-31T09:43:38.706Z,51.10
2018-07-31T09:46:07.433Z,51.30
2018-07-31T09:48:36.179Z,50.70
2018-07-31T09:51:04.835Z,46.00
2018-07-31T09:53:33.730Z,47.80
2018-07-31T09:56:02.405Z,50.40
2018-07-31T09:58:31.237Z,50.70
2018-07-31T10:03:33.842Z,49.80
2018-07-31T10:08:55.801Z,50.30
2018-07-31T10:11:24.469Z,49.60
2018-07-31T10:13:53.144Z,49.50
2018-07-31T10:16:21.865Z,50.00
2018-07-31T10:18:54.721Z,49.60
2018-07-31T10:21:23.450Z,48.70
2018-07-31T10:23:52.165Z,48.00
2018-07-31T10:26:40.158Z,46.80
2018-07-31T10:29:09.069Z,48.40
2018-07-31T10:31:37.974Z,47.10
2018-07-31T10:34:06.749Z,48.10
2018-07-31T10:36:35.521Z,46.90
2018-07-31T10:39:07.029Z,46.00
2018-07-31T10:41:35.798Z,44.30
2018-07-31T10:44:04.550Z,46.00
2018-07-31T10:46:39.207Z,46.50
2018-07-31T10:49:07.921Z,44.20
2018-07-31T10:51:36.624Z,43.50
2018-07-31T10:54:05.376Z,44.30
2018-07-31T10:56:35.212Z,45.40
2018-07-31T11:04:05.900Z,43.70
2018-07-31T11:06:34.778Z,44.90
2018-07-31T11:09:07.452Z,44.90
2018-07-31T11:11:36.153Z,44.50
2018-07-31T11:14:05.485Z,45.10
2018-07-31T11:16:34.173Z,44.60
2018-07-31T11:19:02.853Z,43.90
2018-07-31T11:21:31.870Z,44.20
2018-07-31T11:24:17.601Z,44.40
2018-07-31T11:26:46.317Z,44.60
2018-07-31T11:29:15.013Z,44.80
2018-07-31T11:31:43.885Z,43.30
2018-07-31T11:34:12.614Z,42.80
2018-07-31T11:36:46.078Z,43.20
2018-07-31T11:39:14.731Z,42.80
2018-07-31T11:41:43.543Z,41.90
2018-07-31T11:44:12.265Z,41.80
2018-07-31T11:46:41.021Z,42.40
2018-07-31T11:49:09.760Z,41.80
2018-07-31T11:51:49.307Z,40.40
2018-07-31T11:54:17.954Z,41.50
2018-07-31T11:56:46.997Z,41.30
2018-07-31T11:59:15.884Z,40.90
2018-07-31T12:01:44.575Z,41.60
2018-07-31T12:04:13.390Z,39.50
2018-07-31T12:06:42.050Z,40.90
2018-07-31T12:09:12.610Z,40.20
2018-07-31T12:11:45.930Z,38.70
2018-07-31T12:14:14.913Z,38.90
2018-07-31T12:16:43.717Z,40.00
2018-07-31T12:19:27.116Z,39.20
2018-07-31T12:21:55.829Z,38.50
2018-07-31T12:24:24.509Z,38.00
2018-07-31T12:26:53.302Z,38.80
2018-07-31T12:29:21.997Z,39.00
2018-07-31T12:31:50.750Z,37.90
2018-07-31T12:34:31.963Z,38.40
2018-07-31T12:37:00.757Z,38.70
2018-07-31T12:39:50.773Z,38.60
2018-07-31T12:42:19.465Z,38.80
2018-07-31T12:45:07.137Z,39.20
2018-07-31T12:47:35.917Z,38.40
2018-07-31T12:50:05.016Z,38.70
2018-07-31T12:52:33.683Z,38.20
2018-07-31T12:55:02.837Z,38.50
2018-07-31T12:57:31.621Z,39.10
2018-07-31T13:00:00.702Z,39.60
2018-07-31T13:02:30.395Z,39.40
2018-07-31T13:04:59.046Z,38.80
2018-07-31T13:07:28.058Z,40.00
2018-07-31T13:10:01.037Z,39.40
2018-07-31T13:12:29.730Z,39.20
2018-07-31T13:14:58.476Z,37.80
2018-07-31T13:17:27.182Z,37.90
2018-07-31T13:20:04.765Z,38.00
2018-07-31T13:25:01.906Z,36.40
2018-07-31T13:27:30.626Z,37.50
2018-07-31T13:29:59.465Z,36.60
2018-07-31T13:32:28.181Z,36.40
2018-07-31T13:34:56.977Z,36.80
2018-07-31T13:37:25.814Z,35.40
2018-07-31T13:39:54.949Z,35.60
2018-07-31T13:42:23.725Z,37.10
2018-07-31T13:44:52.690Z,37.00
2018-07-31T13:47:21.389Z,35.70
2018-07-31T13:49:50.045Z,34.30
2018-07-31T13:52:24.765Z,35.20
2018-07-31T13:54:53.445Z,34.80
2018-07-31T13:57:22.174Z,33.90
2018-07-31T13:59:54.833Z,34.50
2018-07-31T14:02:23.557Z,34.70
2018-07-31T14:04:52.217Z,34.40
2018-07-31T14:07:21.002Z,35.50
2018-07-31T14:09:49.763Z,35.20
2018-07-31T14:12:18.683Z,35.90
2018-07-31T14:14:47.421Z,35.00
2018-07-31T14:17:16.205Z,36.00
2018-07-31T14:22:13.503Z,35.20
2018-07-31T14:24:42.253Z,35.20
2018-07-31T14:27:11.041Z,35.50
2018-07-31T14:29:39.765Z,36.40
2018-07-31T14:32:08.481Z,34.60
2018-07-31T14:34:37.305Z,36.10
2018-07-31T14:37:06.032Z,36.30
2018-07-31T14:39:34.741Z,36.40
2018-07-31T14:42:03.445Z,35.60
2018-07-31T14:44:32.172Z,36.40
2018-07-31T14:47:02.935Z,34.80
2018-07-31T14:49:31.633Z,35.00
2018-07-31T14:52:00.358Z,34.50
2018-07-31T14:56:57.462Z,34.40
2018-07-31T14:59:26.102Z,34.10
2018-07-31T15:01:55.036Z,33.70
2018-07-31T15:04:23.777Z,33.60
2018-07-31T15:09:27.822Z,36.30
2018-07-31T15:11:56.538Z,34.90
2018-07-31T15:14:25.354Z,34.90
2018-07-31T15:16:54.079Z,35.70
2018-07-31T15:19:31.421Z,34.50
2018-07-31T15:22:00.173Z,35.10
2018-07-31T15:24:28.909Z,35.00
2018-07-31T15:26:57.869Z,34.10
2018-07-31T15:29:26.621Z,35.20
2018-07-31T15:32:01.596Z,34.80
2018-07-31T15:34:30.314Z,34.20
2018-07-31T15:36:59.325Z,35.60
2018-07-31T15:39:28.081Z,36.90
2018-07-31T15:41:56.834Z,37.90
2018-07-31T15:44:27.871Z,39.00
2018-07-31T15:46:56.702Z,39.50
2018-07-31T15:49:25.451Z,39.50
2018-07-31T15:51:54.247Z,39.40
2018-07-31T15:54:23.013Z,39.50
2018-07-31T15:56:51.761Z,39.20
2018-07-31T15:59:20.494Z,38.90
2018-07-31T16:01:54.146Z,38.70
2018-07-31T16:04:22.849Z,38.40
2018-07-31T16:06:51.532Z,37.60
2018-07-31T16:09:27.894Z,36.50
2018-07-31T16:11:56.637Z,35.80
2018-07-31T16:14:25.384Z,34.30
2018-07-31T16:16:54.065Z,33.20
2018-07-31T16:19:26.837Z,32.90
2018-07-31T16:21:55.571Z,31.40
2018-07-31T16:24:26.417Z,32.00
2018-07-31T16:27:10.150Z,32.90
2018-07-31T16:29:42.381Z,34.30
2018-07-31T16:32:17.311Z,34.40
2018-07-31T16:34:50.152Z,34.50
2018-07-31T16:37:20.049Z,34.90
2018-07-31T16:39:48.962Z,36.30
2018-07-31T16:42:28.577Z,36.10
2018-07-31T16:44:57.326Z,37.00
2018-07-31T16:47:26.046Z,37.50
2018-07-31T16:49:54.834Z,38.60
2018-07-31T16:52:23.568Z,38.30
2018-07-31T16:55:00.085Z,37.30
2018-07-31T16:57:30.892Z,37.00
2018-07-31T16:59:59.829Z,36.60
2018-07-31T17:02:42.005Z,37.20
2018-07-31T17:05:10.705Z,38.00
2018-07-31T17:07:39.456Z,38.50
2018-07-31T17:10:08.221Z,38.00
2018-07-31T17:12:45.635Z,41.70
2018-07-31T17:15:14.309Z,49.80
2018-07-31T17:17:43.114Z,50.00
2018-07-31T17:20:16.041Z,52.10
2018-07-31T17:22:44.819Z,50.30
2018-07-31T17:25:13.506Z,48.90
2018-07-31T17:27:42.205Z,48.80
2018-07-31T17:30:10.933Z,50.60
2018-07-31T17:32:39.647Z,53.30
2018-07-31T17:35:08.348Z,51.80
2018-07-31T17:37:37.134Z,55.30
2018-07-31T17:40:06.102Z,54.60
2018-07-31T17:42:34.885Z,53.00
2018-07-31T17:45:03.758Z,50.00
2018-07-31T17:47:32.617Z,47.60
2018-07-31T17:50:02.521Z,44.50
2018-07-31T17:52:31.353Z,41.00
2018-07-31T17:55:00.106Z,40.00
2018-07-31T17:57:28.868Z,39.00
2018-07-31T17:59:57.635Z,36.40
2018-07-31T18:02:26.433Z,37.90
2018-07-31T18:04:55.136Z,38.90
2018-07-31T18:07:23.969Z,38.50
2018-07-31T18:09:52.777Z,39.10
2018-07-31T18:12:21.654Z,37.20
2018-07-31T18:17:41.459Z,37.90
2018-07-31T18:20:10.441Z,40.50
2018-07-31T18:22:39.173Z,43.10
2018-07-31T18:25:08.054Z,45.20
2018-07-31T18:27:36.889Z,47.50
2018-07-31T18:30:18.866Z,49.40
2018-07-31T18:32:47.694Z,49.90
2018-07-31T18:35:16.636Z,48.70
2018-07-31T18:37:46.350Z,48.80
2018-07-31T18:40:15.101Z,48.80
2018-07-31T18:42:43.836Z,50.40
2018-07-31T18:45:12.590Z,51.90
2018-07-31T18:47:41.431Z,54.00
2018-07-31T18:50:10.211Z,56.70
2018-07-31T18:52:39.012Z,55.20
2018-07-31T18:55:18.711Z,56.70
2018-07-31T18:57:47.436Z,58.20
2018-07-31T19:00:16.640Z,60.00
2018-07-31T19:02:45.359Z,61.50
2018-07-31T19:05:14.285Z,60.60
2018-07-31T19:07:46.223Z,63.90
2018-07-31T19:10:14.959Z,65.10
2018-07-31T19:12:43.749Z,66.30
2018-07-31T19:15:12.473Z,65.70
2018-07-31T19:17:41.263Z,65.40
2018-07-31T19:20:11.849Z,66.50
2018-07-31T19:22:40.542Z,68.40
2018-07-31T19:25:09.285Z,69.10
2018-07-31T19:27:38.224Z,69.30
2018-07-31T19:30:07.025Z,70.40
2018-07-31T19:32:40.837Z,70.80
2018-07-31T19:35:09.546Z,70.70
2018-07-31T19:37:38.245Z,71.20
2018-07-31T19:40:07.096Z,70.70
2018-07-31T19:42:37.855Z,71.50
2018-07-31T19:45:06.634Z,71.70
2018-07-31T19:47:35.351Z,71.90
2018-07-31T19:50:04.317Z,72.70
2018-07-31T19:52:33.014Z,72.00
2018-07-31T19:55:01.781Z,71.70
2018-07-31T19:57:30.553Z,71.10
2018-07-31T19:59:59.316Z,71.90
2018-07-31T20:02:28.250Z,72.70
2018-07-31T20:04:56.984Z,74.60
2018-07-31T20:07:25.685Z,74.80
2018-07-31T20:10:00.672Z,73.30
2018-07-31T20:12:29.409Z,74.70
2018-07-31T20:14:58.235Z,75.80
2018-07-31T20:17:27.003Z,76.20
2018-07-31T20:19:55.666Z,77.10
2018-07-31T20:22:24.446Z,77.00
2018-07-31T20:24:53.201Z,77.00
2018-07-31T20:27:21.917Z,76.90
2018-07-31T20:29:50.606Z,76.90
2018-07-31T20:34:48.109Z,77.20
2018-07-31T20:37:16.755Z,78.90
2018-07-31T20:39:45.476Z,79.90
2018-07-31T20:42:14.206Z,79.10
2018-07-31T20:44:42.937Z,80.00
2018-07-31T20:47:11.710Z,80.50
2018-07-31T20:49:40.394Z,80.80
2018-07-31T20:52:09.146Z,81.70
2018-07-31T20:54:37.853Z,82.20
2018-07-31T20:57:06.566Z,81.90
2018-07-31T20:59:35.285Z,83.00
2018-07-31T21:02:04.036Z,84.30
2018-07-31T21:04:32.723Z,83.80
2018-07-31T21:07:01.556Z,83.90
2018-07-31T21:09:34.481Z,83.90
2018-07-31T21:12:03.188Z,83.90
2018-07-31T21:14:31.868Z,84.10
2018-07-31T21:17:00.641Z,83.60
2018-07-31T21:19:29.414Z,84.20
2018-07-31T21:21:58.203Z,85.10
2018-07-31T21:24:36.650Z,84.80
2018-07-31T21:27:05.345Z,84.80
2018-07-31T21:29:34.006Z,84.70
2018-07-31T21:32:02.746Z,84.60
2018-07-31T21:34:31.574Z,84.30
2018-07-31T21:37:00.382Z,82.90
2018-07-31T21:39:29.198Z,83.30
2018-07-31T21:44:26.345Z,83.60
2018-07-31T21:46:55.042Z,84.40
2018-07-31T21:49:23.769Z,85.70
2018-07-31T21:51:52.518Z,82.30
2018-07-31T21:54:21.218Z,82.00
2018-07-31T21:56:49.952Z,82.00
2018-07-31T21:59:18.695Z,82.70
2018-07-31T22:04:15.869Z,82.30
2018-07-31T22:06:44.584Z,82.40
2018-07-31T22:09:13.303Z,79.40
2018-07-31T22:11:42.022Z,77.00
2018-07-31T22:14:10.762Z,76.20
2018-07-31T22:16:39.454Z,75.50
2018-07-31T22:19:08.185Z,75.80
2018-07-31T22:21:36.905Z,76.80
2018-07-31T22:24:05.676Z,77.80
2018-07-31T22:26:34.463Z,77.20
2018-07-31T22:29:03.181Z,77.50
2018-07-31T22:31:39.865Z,77.40
2018-07-31T22:34:08.897Z,77.70
2018-07-31T22:36:37.605Z,79.00
2018-07-31T22:39:08.301Z,78.70
2018-07-31T22:41:37.041Z,78.70
2018-07-31T22:44:05.782Z,78.70
2018-07-31T22:46:34.477Z,79.50
2018-07-31T22:49:03.322Z,79.50
2018-07-31T22:51:32.114Z,79.90
2018-07-31T22:54:00.833Z,80.00
2018-07-31T22:56:29.565Z,79.80
2018-07-31T22:58:58.261Z,78.60
2018-07-31T23:01:27.025Z,77.80
2018-07-31T23:03:55.765Z,76.70
2018-07-31T23:06:24.421Z,75.80
2018-07-31T23:08:53.122Z,75.40
2018-07-31T23:11:21.938Z,75.20
2018-07-31T23:13:50.727Z,76.20
2018-07-31T23:16:19.513Z,76.10
2018-07-31T23:18:48.230Z,75.80
2018-07-31T23:21:16.953Z,76.10
2018-07-31T23:23:45.845Z,75.60
2018-07-31T23:26:14.504Z,75.60
2018-07-31T23:28:43.242Z,75.40
2018-07-31T23:31:11.985Z,75.30
2018-07-31T23:33:40.721Z,75.30
2018-07-31T23:36:09.451Z,75.20
2018-07-31T23:38:38.221Z,74.70
2018-07-31T23:41:07.310Z,74.20
2018-07-31T23:43:36.003Z,73.90
2018-07-31T23:46:04.833Z,73.80
2018-07-31T23:48:33.517Z,73.20
2018-07-31T23:51:02.201Z,73.20
2018-07-31T23:53:30.893Z,72.90
2018-07-31T23:55:59.593Z,72.80
2018-07-31T23:58:28.272Z,73.50
